Terminal Aerodrome Forecast
Issued by NWS

Home | Current Version | Previous Version | Text Only | Print | Product List | Glossary On
Versions: 1 2 3 4 5 6 7 8 9 10 11 12 13 14 15 16 17
000
FTUS41 KPHI 300500 RRA
TAFPNE
TAF
KPNE 300548Z 3006/3106 VRB04KT P6SM OVC045
     FM300800 VRB03KT P6SM OVC050
      TEMPO 3010/3013 5SM -SN BKN030
     FM301300 29011KT P6SM SCT020 OVC050
     FM301600 32016G29KT P6SM BKN035
     FM302200 32020G35KT P6SM SCT030=

USA.gov is the U.S. government's official web portal to all federal, state and local government web resources and services.